createdAt,value
2022-12-23T00:01:33.317Z,13.60
2022-12-23T00:06:41.608Z,13.20
2022-12-23T00:12:04.881Z,12.80
2022-12-23T00:17:22.431Z,13.10
2022-12-23T00:22:50.431Z,12.00
2022-12-23T00:28:03.332Z,13.10
2022-12-23T00:33:11.646Z,11.30
2022-12-23T00:38:42.347Z,12.20
2022-12-23T00:43:49.763Z,10.80
2022-12-23T00:49:16.594Z,12.50
2022-12-23T00:54:25.161Z,11.80
2022-12-23T00:59:33.237Z,11.60
2022-12-23T01:04:59.419Z,10.10
2022-12-23T01:10:08.714Z,11.70
2022-12-23T01:15:17.129Z,10.90
2022-12-23T01:20:26.836Z,10.90
2022-12-23T01:25:36.399Z,10.10
2022-12-23T01:30:45.298Z,11.60
2022-12-23T01:35:53.409Z,10.50
2022-12-23T01:41:01.614Z,10.30
2022-12-23T01:46:09.890Z,9.60
2022-12-23T01:51:22.028Z,10.30
2022-12-23T01:56:36.750Z,9.80
2022-12-23T02:02:09.786Z,10.20
2022-12-23T02:07:37.834Z,8.90
2022-12-23T02:12:54.429Z,10.40
2022-12-23T02:18:29.166Z,9.40
2022-12-23T02:24:15.675Z,10.00
2022-12-23T02:30:04.091Z,9.40
2022-12-23T02:35:16.685Z,9.40
2022-12-23T02:40:33.750Z,9.60
2022-12-23T02:45:48.599Z,10.70
2022-12-23T02:50:59.348Z,10.30
2022-12-23T02:56:10.687Z,10.60
2022-12-23T03:01:20.787Z,11.60
2022-12-23T03:06:32.050Z,11.80
2022-12-23T03:11:53.318Z,12.10
2022-12-23T03:17:11.050Z,12.20
2022-12-23T03:22:25.872Z,11.60
2022-12-23T03:27:39.610Z,12.60
2022-12-23T03:32:55.272Z,11.60
2022-12-23T03:38:05.302Z,12.70
2022-12-23T03:43:17.951Z,12.20
2022-12-23T03:48:32.423Z,11.00
2022-12-23T03:53:45.396Z,12.30
2022-12-23T03:59:00.423Z,11.20
2022-12-23T04:04:13.431Z,10.90
2022-12-23T04:09:23.335Z,10.90
2022-12-23T04:14:30.977Z,11.20
2022-12-23T04:19:39.515Z,10.70
2022-12-23T04:24:47.571Z,10.20
2022-12-23T04:29:55.290Z,10.50
2022-12-23T04:35:03.764Z,10.40
2022-12-23T04:40:13.535Z,9.90
2022-12-23T04:45:21.895Z,8.90
2022-12-23T04:50:30.328Z,9.30
2022-12-23T04:55:38.909Z,8.90
2022-12-23T05:00:47.720Z,8.60
2022-12-23T05:05:56.307Z,8.90
2022-12-23T05:11:04.615Z,8.10
2022-12-23T05:16:13.741Z,8.00
2022-12-23T05:21:22.523Z,7.90
2022-12-23T05:26:30.915Z,9.20
2022-12-23T05:31:39.491Z,8.60
2022-12-23T05:36:47.777Z,9.50
2022-12-23T05:41:55.836Z,8.50
2022-12-23T05:47:04.340Z,9.60
2022-12-23T05:52:12.850Z,9.60
2022-12-23T05:57:21.173Z,10.00
2022-12-23T06:02:29.837Z,8.90
2022-12-23T06:07:38.514Z,9.60
2022-12-23T06:12:47.221Z,9.20
2022-12-23T06:17:57.243Z,10.30
2022-12-23T06:23:05.348Z,10.70
2022-12-23T06:28:13.781Z,11.50
2022-12-23T06:33:22.151Z,11.40
2022-12-23T06:38:30.457Z,11.70
2022-12-23T06:43:38.622Z,12.40
2022-12-23T06:48:47.347Z,13.00
2022-12-23T06:53:55.656Z,13.90
2022-12-23T06:59:04.169Z,13.40
2022-12-23T07:04:12.245Z,12.60
2022-12-23T07:09:20.983Z,12.50
2022-12-23T07:14:29.298Z,13.50
2022-12-23T07:19:37.883Z,14.30
2022-12-23T07:24:46.578Z,14.20
2022-12-23T07:29:55.009Z,14.50
2022-12-23T07:35:04.252Z,16.20
2022-12-23T07:40:16.434Z,15.30
2022-12-23T07:45:25.359Z,17.60
2022-12-23T07:50:33.687Z,15.50
2022-12-23T07:55:41.663Z,16.80
2022-12-23T08:00:50.657Z,16.40
2022-12-23T08:06:06.306Z,17.30
2022-12-23T08:11:16.407Z,17.00
2022-12-23T08:16:24.718Z,16.30
2022-12-23T08:21:34.001Z,17.00
2022-12-23T08:26:42.918Z,16.40
2022-12-23T08:31:52.326Z,16.90
2022-12-23T08:37:01.898Z,17.10
2022-12-23T08:42:11.017Z,18.00
2022-12-23T08:47:20.106Z,17.70
2022-12-23T08:52:30.004Z,17.50
2022-12-23T08:57:39.554Z,17.00
2022-12-23T09:02:49.420Z,17.10
2022-12-23T09:07:58.869Z,17.50
2022-12-23T09:13:08.252Z,16.40
2022-12-23T09:18:16.490Z,16.40
2022-12-23T09:23:25.038Z,16.50
2022-12-23T09:28:33.693Z,16.30
2022-12-23T09:33:42.122Z,16.80
2022-12-23T09:38:55.824Z,17.50
2022-12-23T09:44:21.223Z,17.70
2022-12-23T09:49:30.068Z,16.90
2022-12-23T09:54:47.679Z,15.90
2022-12-23T10:00:09.133Z,17.10
2022-12-23T10:05:28.527Z,17.10
2022-12-23T10:10:41.750Z,16.90
2022-12-23T10:15:53.366Z,16.10
2022-12-23T10:21:06.520Z,17.10
2022-12-23T10:26:22.846Z,16.40
2022-12-23T10:31:44.511Z,17.20
2022-12-23T10:37:00.865Z,17.40
2022-12-23T10:42:21.946Z,16.30
2022-12-23T10:47:45.825Z,16.50
2022-12-23T10:53:00.046Z,17.40
2022-12-23T10:58:16.729Z,17.40
2022-12-23T11:03:29.918Z,17.40
2022-12-23T11:08:40.713Z,18.80
2022-12-23T11:13:51.596Z,17.90
2022-12-23T11:19:03.515Z,17.70
2022-12-23T11:24:18.831Z,18.30
2022-12-23T11:29:30.376Z,16.10
2022-12-23T11:34:40.262Z,17.40
2022-12-23T11:39:50.480Z,17.90
2022-12-23T11:45:01.827Z,17.90
2022-12-23T11:50:30.819Z,16.70
2022-12-23T11:55:44.046Z,16.90
2022-12-23T12:00:58.392Z,17.40
2022-12-23T12:06:08.320Z,17.90
2022-12-23T12:11:23.795Z,19.60
2022-12-23T12:16:53.697Z,18.30
2022-12-23T12:22:08.367Z,16.90
2022-12-23T12:27:17.229Z,18.70
2022-12-23T12:32:32.135Z,16.70
2022-12-23T12:37:48.476Z,16.50
2022-12-23T12:43:04.213Z,17.40
2022-12-23T12:48:33.565Z,15.90
2022-12-23T12:53:53.038Z,16.10
2022-12-23T12:59:02.011Z,15.00
2022-12-23T13:04:39.579Z,15.10
2022-12-23T13:09:59.521Z,14.90
2022-12-23T13:15:21.590Z,13.30
2022-12-23T13:20:37.099Z,15.30
2022-12-23T13:25:52.684Z,14.70
2022-12-23T13:31:10.374Z,14.50
2022-12-23T13:36:36.493Z,13.60
2022-12-23T13:41:47.525Z,12.90
2022-12-23T13:47:07.695Z,12.10
2022-12-23T13:52:23.756Z,12.50
2022-12-23T13:57:50.900Z,11.90
2022-12-23T14:03:23.439Z,11.60
2022-12-23T14:08:43.485Z,11.10
2022-12-23T14:14:00.483Z,11.40
2022-12-23T14:19:41.178Z,11.90
2022-12-23T14:25:33.627Z,11.00
2022-12-23T14:30:51.135Z,10.40
2022-12-23T14:36:30.131Z,10.40
2022-12-23T14:42:05.445Z,10.20
2022-12-23T14:47:35.236Z,10.10
2022-12-23T14:53:09.132Z,11.50
2022-12-23T14:59:05.385Z,10.70
2022-12-23T15:04:24.014Z,11.20
2022-12-23T15:09:48.147Z,10.60
2022-12-23T15:15:06.909Z,12.30
2022-12-23T15:20:24.194Z,10.90
2022-12-23T15:25:34.834Z,11.30
2022-12-23T15:30:54.397Z,11.60
2022-12-23T15:36:06.488Z,10.90
2022-12-23T15:41:22.745Z,12.50
2022-12-23T15:46:33.747Z,13.70
2022-12-23T15:52:07.136Z,13.90
2022-12-23T15:57:22.365Z,15.20
2022-12-23T16:08:30.326Z,15.00
2022-12-23T16:13:44.913Z,14.90
2022-12-23T16:18:57.659Z,15.60
2022-12-23T16:24:09.280Z,15.40
2022-12-23T16:29:19.511Z,17.20
2022-12-23T16:34:33.119Z,16.10
2022-12-23T16:39:43.146Z,17.10
2022-12-23T16:44:51.765Z,16.70
2022-12-23T16:50:00.565Z,15.60
2022-12-23T16:55:16.218Z,16.70
2022-12-23T17:00:25.044Z,17.40
2022-12-23T17:05:33.386Z,16.80
2022-12-23T17:10:45.098Z,15.40
2022-12-23T17:15:54.651Z,14.30
2022-12-23T17:21:03.474Z,14.80
2022-12-23T17:26:12.499Z,14.50
2022-12-23T17:31:27.041Z,14.40
2022-12-23T17:36:36.275Z,14.90
2022-12-23T17:41:46.150Z,15.00
2022-12-23T17:46:54.692Z,13.80
2022-12-23T17:52:03.978Z,15.60
2022-12-23T17:57:21.232Z,13.80
2022-12-23T18:02:33.294Z,14.50
2022-12-23T18:07:42.250Z,15.20
2022-12-23T18:12:54.540Z,13.50
2022-12-23T18:18:03.384Z,13.10
2022-12-23T18:23:15.359Z,15.10
2022-12-23T18:28:24.754Z,15.70
2022-12-23T18:33:33.931Z,15.30
2022-12-23T18:38:42.352Z,16.10
2022-12-23T18:43:50.864Z,15.90
2022-12-23T18:48:59.120Z,17.00
2022-12-23T18:54:08.066Z,16.20
2022-12-23T18:59:27.490Z,18.60
2022-12-23T19:04:39.943Z,16.80
2022-12-23T19:09:48.447Z,17.20
2022-12-23T19:14:57.265Z,19.30
2022-12-23T19:20:06.587Z,17.80
2022-12-23T19:25:21.754Z,16.70
2022-12-23T19:30:30.059Z,18.70
2022-12-23T19:35:39.007Z,15.00
2022-12-23T19:40:47.227Z,16.10
2022-12-23T19:46:03.281Z,17.60
2022-12-23T19:51:13.345Z,16.60
2022-12-23T19:56:23.166Z,16.00
2022-12-23T20:01:32.032Z,17.50
2022-12-23T20:06:42.132Z,16.40
2022-12-23T20:11:51.346Z,15.80
2022-12-23T20:16:59.770Z,16.10
2022-12-23T20:22:08.601Z,15.70
2022-12-23T20:27:32.708Z,15.70
2022-12-23T20:32:41.160Z,18.10
2022-12-23T20:37:49.642Z,18.60
2022-12-23T20:42:58.687Z,17.20
2022-12-23T20:48:07.836Z,17.50
2022-12-23T20:55:33.399Z,17.50
2022-12-23T21:01:14.804Z,19.50
2022-12-23T21:06:24.241Z,18.30
2022-12-23T21:11:34.456Z,17.80
2022-12-23T21:16:43.667Z,19.30
2022-12-23T21:21:52.945Z,17.60
2022-12-23T21:27:01.405Z,17.50
2022-12-23T21:32:10.707Z,17.90
2022-12-23T21:37:19.036Z,17.00
2022-12-23T21:42:27.427Z,15.40
2022-12-23T21:47:35.845Z,15.40
2022-12-23T21:52:44.161Z,14.60
2022-12-23T21:57:53.237Z,16.20
2022-12-23T22:03:02.045Z,17.50
2022-12-23T22:08:10.490Z,17.20
2022-12-23T22:13:18.685Z,16.80
2022-12-23T22:18:27.030Z,16.10
2022-12-23T22:23:35.718Z,16.20
2022-12-23T22:28:44.491Z,15.70
2022-12-23T22:33:53.247Z,15.50
2022-12-23T22:39:02.804Z,14.50
2022-12-23T22:44:11.893Z,17.20
2022-12-23T22:49:20.809Z,15.50
2022-12-23T22:54:29.437Z,13.10
2022-12-23T22:59:38.198Z,11.80
2022-12-23T23:04:47.670Z,10.20
2022-12-23T23:09:56.240Z,14.40
2022-12-23T23:15:04.483Z,12.20
2022-12-23T23:20:14.456Z,8.00
2022-12-23T23:25:23.982Z,5.40
2022-12-23T23:30:32.284Z,5.00
2022-12-23T23:35:40.864Z,4.40
2022-12-23T23:40:50.886Z,4.00
2022-12-23T23:45:59.766Z,3.50
2022-12-23T23:51:11.205Z,3.80
2022-12-23T23:56:25.137Z,3.60
